createdAt,value
2022-09-26T00:01:27.777Z,100721.75
2022-09-26T00:03:57.763Z,100720.34
2022-09-26T00:06:26.835Z,100715.25
2022-09-26T00:08:56.653Z,100704.22
2022-09-26T00:11:27.484Z,100701.00
2022-09-26T00:13:56.936Z,100708.06
2022-09-26T00:16:25.370Z,100688.66
2022-09-26T00:18:55.549Z,100680.16
2022-09-26T00:21:24.475Z,100670.69
2022-09-26T00:23:52.696Z,100671.03
2022-09-26T00:26:23.427Z,100665.13
2022-09-26T00:28:51.903Z,100668.31
2022-09-26T00:31:22.323Z,100664.94
2022-09-26T00:33:50.515Z,100663.00
2022-09-26T00:36:18.538Z,100654.22
2022-09-26T00:38:47.006Z,100663.09
2022-09-26T00:41:16.173Z,100650.78
2022-09-26T00:43:47.014Z,100650.50
2022-09-26T00:46:24.391Z,100639.13
2022-09-26T00:48:57.118Z,100630.31
2022-09-26T00:51:25.057Z,100632.38
2022-09-26T00:53:55.774Z,100628.81
2022-09-26T00:56:27.689Z,100625.78
2022-09-26T00:59:01.993Z,100618.75
2022-09-26T01:01:30.220Z,100620.66
2022-09-26T01:03:59.678Z,100613.50
2022-09-26T01:06:27.842Z,100613.00
2022-09-26T01:08:59.834Z,100613.81
2022-09-26T01:11:30.071Z,100609.84
2022-09-26T01:14:00.485Z,100600.72
2022-09-26T01:16:28.653Z,100596.41
2022-09-26T01:18:56.921Z,100595.97
2022-09-26T01:21:44.114Z,100587.66
2022-09-26T01:24:49.314Z,100583.00
2022-09-26T01:27:40.054Z,100578.03
2022-09-26T01:30:21.726Z,100574.16
2022-09-26T01:33:19.160Z,100560.75
2022-09-26T01:36:34.662Z,100562.91
2022-09-26T01:39:14.814Z,100568.81
2022-09-26T01:41:51.734Z,100565.28
2022-09-26T01:44:32.439Z,100574.25
2022-09-26T01:47:06.994Z,100572.13
2022-09-26T01:49:38.711Z,100566.69
2022-09-26T01:52:11.804Z,100571.31
2022-09-26T01:54:44.673Z,100562.03
2022-09-26T01:57:22.499Z,100560.44
2022-09-26T01:59:56.301Z,100559.16
2022-09-26T02:02:28.671Z,100548.72
2022-09-26T02:05:04.315Z,100540.34
2022-09-26T02:07:36.846Z,100536.47
2022-09-26T02:10:09.235Z,100530.84
2022-09-26T02:12:40.254Z,100524.25
2022-09-26T02:15:12.496Z,100517.47
2022-09-26T02:17:46.787Z,100514.56
2022-09-26T02:20:20.012Z,100501.38
2022-09-26T02:22:47.966Z,100500.72
2022-09-26T02:25:15.906Z,100500.59
2022-09-26T02:27:44.323Z,100493.22
2022-09-26T02:30:13.074Z,100482.31
2022-09-26T02:32:42.419Z,100473.47
2022-09-26T02:35:35.734Z,100469.72
2022-09-26T02:38:05.635Z,100464.41
2022-09-26T02:40:42.420Z,100462.13
2022-09-26T02:43:28.583Z,100454.63
2022-09-26T02:46:07.237Z,100455.09
2022-09-26T02:48:54.639Z,100445.78
2022-09-26T02:51:36.983Z,100439.53
2022-09-26T02:54:22.053Z,100444.06
2022-09-26T02:57:04.773Z,100425.56
2022-09-26T02:59:38.804Z,100421.69
2022-09-26T03:02:15.788Z,100418.50
2022-09-26T03:04:49.903Z,100414.19
2022-09-26T03:07:22.504Z,100411.03
2022-09-26T03:09:52.855Z,100411.94
2022-09-26T03:12:22.387Z,100398.78
2022-09-26T03:14:54.199Z,100395.94
2022-09-26T03:17:29.031Z,100394.00
2022-09-26T03:20:01.207Z,100390.13
2022-09-26T03:22:29.118Z,100383.09
2022-09-26T03:24:59.294Z,100379.94
2022-09-26T03:27:27.839Z,100381.50
2022-09-26T03:29:55.717Z,100369.69
2022-09-26T03:32:23.504Z,100369.22
2022-09-26T03:34:51.820Z,100368.09
2022-09-26T03:37:21.031Z,100363.13
2022-09-26T03:39:48.824Z,100351.09
2022-09-26T03:42:16.795Z,100353.81
2022-09-26T03:44:45.029Z,100353.34
2022-09-26T03:47:13.526Z,100355.41
2022-09-26T03:49:41.326Z,100348.81
2022-09-26T03:52:11.712Z,100343.38
2022-09-26T03:54:40.999Z,100342.22
2022-09-26T03:57:09.873Z,100341.09
2022-09-26T03:59:37.624Z,100335.63
2022-09-26T04:02:07.955Z,100330.88
2022-09-26T04:04:35.759Z,100323.16
2022-09-26T04:07:03.569Z,100330.09
2022-09-26T04:09:31.466Z,100317.94
2022-09-26T04:12:00.655Z,100311.69
2022-09-26T04:14:28.463Z,100312.78
2022-09-26T04:16:56.265Z,100301.09
2022-09-26T04:19:24.180Z,100302.72
2022-09-26T04:21:52.163Z,100294.06
2022-09-26T04:24:21.501Z,100290.22
2022-09-26T04:26:49.686Z,100288.44
2022-09-26T04:29:19.092Z,100290.47
2022-09-26T04:31:47.002Z,100285.94
2022-09-26T04:34:14.949Z,100282.06
2022-09-26T04:36:43.696Z,100282.06
2022-09-26T04:39:12.108Z,100271.16
2022-09-26T04:41:39.851Z,100266.16
2022-09-26T04:44:07.638Z,100270.47
2022-09-26T04:46:36.862Z,100255.47
2022-09-26T04:49:05.053Z,100255.47
2022-09-26T04:51:33.314Z,100253.66
2022-09-26T04:54:01.204Z,100244.22
2022-09-26T04:56:30.887Z,100246.63
2022-09-26T04:59:00.068Z,100234.56
2022-09-26T05:01:28.808Z,100241.97
2022-09-26T05:03:58.374Z,100225.69
2022-09-26T05:06:26.317Z,100225.69
2022-09-26T05:08:54.826Z,100214.78
2022-09-26T05:11:22.634Z,100211.81
2022-09-26T05:13:53.566Z,100205.59
2022-09-26T05:16:22.743Z,100208.91
2022-09-26T05:18:51.882Z,100203.25
2022-09-26T05:21:21.501Z,100208.25
2022-09-26T05:24:06.653Z,100197.34
2022-09-26T05:26:43.003Z,100195.53
2022-09-26T05:29:12.007Z,100190.56
2022-09-26T05:31:40.680Z,100180.81
2022-09-26T05:34:13.139Z,100183.06
2022-09-26T05:36:43.590Z,100186.13
2022-09-26T05:39:31.417Z,100176.59
2022-09-26T05:41:59.427Z,100184.44
2022-09-26T05:44:27.590Z,100178.66
2022-09-26T05:46:57.426Z,100175.16
2022-09-26T05:49:25.965Z,100166.97
2022-09-26T05:51:55.134Z,100160.25
2022-09-26T05:54:23.033Z,100174.34
2022-09-26T05:56:50.902Z,100165.84
2022-09-26T05:59:19.048Z,100170.59
2022-09-26T06:01:48.098Z,100162.16
2022-09-26T06:04:15.985Z,100164.91
2022-09-26T06:06:44.269Z,100156.16
2022-09-26T06:09:13.429Z,100156.28
2022-09-26T06:11:41.206Z,100151.28
2022-09-26T06:14:10.145Z,100140.16
2022-09-26T06:16:38.096Z,100143.34
2022-09-26T06:19:06.239Z,100143.34
2022-09-26T06:21:34.046Z,100135.59
2022-09-26T06:24:02.162Z,100131.75
2022-09-26T06:26:31.372Z,100122.44
2022-09-26T06:29:00.958Z,100127.00
2022-09-26T06:31:30.408Z,100111.78
2022-09-26T06:33:58.722Z,100112.22
2022-09-26T06:36:26.600Z,100106.88
2022-09-26T06:38:55.635Z,100102.31
2022-09-26T06:41:23.450Z,100104.34
2022-09-26T06:43:53.023Z,100095.81
2022-09-26T06:46:21.626Z,100097.66
2022-09-26T06:48:49.833Z,100079.84
2022-09-26T06:51:17.923Z,100086.06
2022-09-26T06:53:46.007Z,100084.50
2022-09-26T06:56:14.740Z,100083.09
2022-09-26T06:58:43.016Z,100077.84
2022-09-26T07:01:12.549Z,100079.16
2022-09-26T07:03:45.153Z,100072.66
2022-09-26T07:06:14.359Z,100077.06
2022-09-26T07:09:03.024Z,100071.63
2022-09-26T07:11:41.982Z,100067.63
2022-09-26T07:14:19.846Z,100057.88
2022-09-26T07:16:51.153Z,100051.63
2022-09-26T07:19:19.343Z,100052.53
2022-09-26T07:21:48.528Z,100045.22
2022-09-26T07:24:16.299Z,100041.34
2022-09-26T07:26:45.021Z,100040.66
2022-09-26T07:29:12.980Z,100032.31
2022-09-26T07:31:40.934Z,100032.03
2022-09-26T07:34:14.613Z,100034.75
2022-09-26T07:36:47.481Z,100022.00
2022-09-26T07:39:15.627Z,100025.09
2022-09-26T07:41:45.943Z,100018.13
2022-09-26T07:47:19.947Z,100028.44
2022-09-26T07:50:06.573Z,100034.75
2022-09-26T07:52:34.431Z,100021.13
2022-09-26T07:55:02.239Z,100030.09
2022-09-26T07:57:34.256Z,100007.84
2022-09-26T08:00:02.611Z,100012.75
2022-09-26T08:02:34.518Z,100019.09
2022-09-26T08:05:05.890Z,100013.66
2022-09-26T08:07:35.440Z,100001.97
2022-09-26T08:10:05.533Z,100008.19
2022-09-26T08:12:37.161Z,100004.31
2022-09-26T08:15:06.516Z,99998.69
2022-09-26T08:17:35.133Z,100001.41
2022-09-26T08:20:05.552Z,99996.84
2022-09-26T08:22:36.614Z,99987.09
2022-09-26T08:25:06.788Z,99991.06
2022-09-26T08:27:35.326Z,99991.84
2022-09-26T08:30:04.373Z,99987.78
2022-09-26T08:32:33.452Z,99983.56
2022-09-26T08:35:03.012Z,99994.81
2022-09-26T08:37:32.166Z,99980.06
2022-09-26T08:40:00.747Z,99973.63
2022-09-26T08:42:46.914Z,99964.69
2022-09-26T08:45:56.291Z,99973.78
2022-09-26T08:48:43.145Z,99975.34
2022-09-26T08:51:22.450Z,99981.06
2022-09-26T08:54:00.117Z,99974.38
2022-09-26T08:56:36.822Z,99974.47
2022-09-26T08:59:07.576Z,99971.31
2022-09-26T09:01:41.303Z,99970.50
2022-09-26T09:04:16.424Z,99971.72
2022-09-26T09:06:44.867Z,99973.34
2022-09-26T09:09:17.361Z,99959.72
2022-09-26T09:12:05.809Z,99972.19
2022-09-26T09:14:45.652Z,99957.88
2022-09-26T09:17:24.743Z,99953.66
2022-09-26T09:20:02.604Z,99956.16
2022-09-26T09:22:50.081Z,99951.22
2022-09-26T09:25:24.159Z,99958.00
2022-09-26T09:28:08.361Z,99944.56
2022-09-26T09:30:43.587Z,99936.63
2022-09-26T09:33:15.974Z,99933.66
2022-09-26T09:35:47.932Z,99932.69
2022-09-26T09:38:18.306Z,99917.91
2022-09-26T09:40:59.277Z,99905.84
2022-09-26T09:43:33.374Z,99909.09
2022-09-26T09:46:05.723Z,99901.88
2022-09-26T09:48:34.216Z,99896.94
2022-09-26T09:51:36.841Z,99897.00
2022-09-26T09:54:31.724Z,99897.53
2022-09-26T09:57:22.134Z,99876.22
2022-09-26T10:00:06.613Z,99874.22
2022-09-26T10:02:44.156Z,99874.66
2022-09-26T10:05:24.232Z,99860.59
2022-09-26T10:07:58.119Z,99849.69
2022-09-26T10:10:35.949Z,99852.69
2022-09-26T10:13:06.721Z,99838.78
2022-09-26T10:15:36.876Z,99838.78
2022-09-26T10:18:24.061Z,99841.16
2022-09-26T10:20:55.182Z,99831.72
2022-09-26T10:23:27.675Z,99837.19
2022-09-26T10:26:00.828Z,99834.13
2022-09-26T10:28:35.292Z,99836.75
2022-09-26T10:31:08.341Z,99832.88
2022-09-26T10:33:45.199Z,99828.22
2022-09-26T10:36:20.921Z,99825.56
2022-09-26T10:39:15.376Z,99821.09
2022-09-26T10:41:46.314Z,99808.84
2022-09-26T10:44:26.988Z,99797.19
2022-09-26T10:47:00.294Z,99798.91
2022-09-26T10:49:36.203Z,99798.72
2022-09-26T10:52:11.696Z,99790.66
2022-09-26T10:54:50.285Z,99780.06
2022-09-26T10:57:28.338Z,99774.41
2022-09-26T11:00:00.517Z,99769.66
2022-09-26T11:02:29.883Z,99775.69
2022-09-26T11:05:17.943Z,99766.91
2022-09-26T11:07:49.035Z,99756.22
2022-09-26T11:10:24.275Z,99759.06
2022-09-26T11:13:02.375Z,99757.91
2022-09-26T11:15:35.374Z,99762.03
2022-09-26T11:18:04.152Z,99749.56
2022-09-26T11:20:41.759Z,99744.84
2022-09-26T11:23:18.751Z,99742.59
2022-09-26T11:25:57.827Z,99739.22
2022-09-26T11:28:32.583Z,99738.94
2022-09-26T11:31:06.047Z,99724.19
2022-09-26T11:33:34.766Z,99732.81
2022-09-26T11:36:17.986Z,99707.88
2022-09-26T11:38:48.361Z,99706.06
2022-09-26T11:41:39.203Z,99704.84
2022-09-26T11:44:21.506Z,99700.94
2022-09-26T11:47:05.175Z,99693.25
2022-09-26T11:49:51.298Z,99693.72
2022-09-26T11:52:36.731Z,99685.66
2022-09-26T11:55:16.107Z,99694.75
2022-09-26T11:57:53.819Z,99690.09
2022-09-26T12:00:27.753Z,99685.81
2022-09-26T12:03:21.944Z,99677.19
2022-09-26T12:05:55.254Z,99681.09
2022-09-26T12:08:42.839Z,99681.09
2022-09-26T12:11:24.346Z,99679.53
2022-09-26T12:14:00.155Z,99675.63
2022-09-26T12:16:36.596Z,99681.81
2022-09-26T12:19:16.928Z,99677.19
2022-09-26T12:22:15.749Z,99673.22
2022-09-26T12:24:53.805Z,99672.06
2022-09-26T12:27:29.646Z,99666.97
2022-09-26T12:30:06.869Z,99664.59
2022-09-26T12:32:55.098Z,99657.47
2022-09-26T12:35:45.351Z,99651.06
2022-09-26T12:38:24.532Z,99653.41
2022-09-26T12:41:04.325Z,99647.16
2022-09-26T12:43:56.731Z,99646.69
2022-09-26T12:46:47.971Z,99645.44
2022-09-26T12:49:29.137Z,99647.44
2022-09-26T12:52:05.641Z,99644.34
2022-09-26T12:54:55.751Z,99641.22
2022-09-26T12:57:42.317Z,99634.50
2022-09-26T13:00:20.216Z,99641.53
2022-09-26T13:03:36.497Z,99634.38
2022-09-26T13:06:57.029Z,99630.88
2022-09-26T13:09:51.705Z,99633.59
2022-09-26T13:12:39.508Z,99629.72
2022-09-26T13:15:23.109Z,99629.25
2022-09-26T13:18:05.401Z,99623.31
2022-09-26T13:20:41.135Z,99620.19
2022-09-26T13:23:18.790Z,99621.75
2022-09-26T13:25:55.213Z,99616.22
2022-09-26T13:28:29.231Z,99613.09
2022-09-26T13:31:02.426Z,99616.19
2022-09-26T13:33:37.025Z,99614.53
2022-09-26T13:36:08.397Z,99601.50
2022-09-26T13:38:51.614Z,99608.19
2022-09-26T13:41:32.509Z,99609.38
2022-09-26T13:44:12.754Z,99598.94
2022-09-26T13:46:52.397Z,99591.03
2022-09-26T13:49:33.928Z,99597.09
2022-09-26T13:52:25.068Z,99590.84
2022-09-26T13:55:02.240Z,99590.47
2022-09-26T13:57:49.828Z,99594.06
2022-09-26T14:00:49.066Z,99587.03
2022-09-26T14:03:47.270Z,99578.34
2022-09-26T14:06:30.866Z,99580.00
2022-09-26T14:09:25.923Z,99576.09
2022-09-26T14:12:21.864Z,99579.16
2022-09-26T14:15:15.486Z,99573.22
2022-09-26T14:18:16.436Z,99574.53
2022-09-26T14:21:08.554Z,99562.84
2022-09-26T14:23:44.709Z,99566.00
2022-09-26T14:26:21.424Z,99565.22
2022-09-26T14:28:54.031Z,99546.06
2022-09-26T14:31:58.098Z,99553.75
2022-09-26T14:34:30.518Z,99540.28
2022-09-26T14:37:03.709Z,99538.75
2022-09-26T14:39:43.164Z,99534.06
2022-09-26T14:42:18.648Z,99527.03
2022-09-26T14:44:55.966Z,99523.16
2022-09-26T14:47:27.224Z,99525.38
2022-09-26T14:50:03.202Z,99524.84
2022-09-26T14:52:31.675Z,99518.19
2022-09-26T14:55:02.209Z,99514.91
2022-09-26T14:57:33.306Z,99510.53
2022-09-26T15:00:02.459Z,99507.88
2022-09-26T15:02:43.852Z,99507.47
2022-09-26T15:05:23.360Z,99501.59
2022-09-26T15:07:53.254Z,99498.50
2022-09-26T15:10:24.709Z,99498.56
2022-09-26T15:13:00.292Z,99487.97
2022-09-26T15:15:37.738Z,99487.66
2022-09-26T15:18:13.908Z,99485.53
2022-09-26T15:20:45.930Z,99482.50
2022-09-26T15:23:26.526Z,99483.56
2022-09-26T15:25:56.452Z,99479.28
2022-09-26T15:28:25.194Z,99464.78
2022-09-26T15:31:22.402Z,99472.13
2022-09-26T15:33:56.140Z,99467.50
2022-09-26T15:36:24.121Z,99466.66
2022-09-26T15:38:52.613Z,99468.97
2022-09-26T15:41:34.494Z,99465.88
2022-09-26T15:44:03.601Z,99454.88
2022-09-26T15:46:32.339Z,99458.06
2022-09-26T15:49:01.718Z,99453.78
2022-09-26T15:51:35.912Z,99447.06
2022-09-26T15:54:08.341Z,99448.53
2022-09-26T15:56:40.261Z,99445.53
2022-09-26T15:59:12.974Z,99451.78
2022-09-26T16:01:43.882Z,99440.47
2022-09-26T16:04:20.933Z,99440.81
2022-09-26T16:07:01.066Z,99437.75
2022-09-26T16:09:33.493Z,99426.47
2022-09-26T16:12:04.171Z,99437.41
2022-09-26T16:14:40.500Z,99431.16
2022-09-26T16:17:18.871Z,99422.28
2022-09-26T16:19:50.124Z,99428.72
2022-09-26T16:22:38.983Z,99420.84
2022-09-26T16:25:29.740Z,99423.16
2022-09-26T16:28:21.124Z,99431.44
2022-09-26T16:31:10.664Z,99417.91
2022-09-26T16:33:41.012Z,99412.88
2022-09-26T16:36:21.121Z,99410.91
2022-09-26T16:38:58.200Z,99406.69
2022-09-26T16:44:34.569Z,99395.47
2022-09-26T16:47:06.163Z,99393.16
2022-09-26T16:49:46.250Z,99389.28
2022-09-26T16:52:34.412Z,99378.28
2022-09-26T16:55:06.058Z,99385.41
2022-09-26T16:57:36.812Z,99378.47
2022-09-26T17:00:33.114Z,99371.44
2022-09-26T17:03:01.189Z,99363.28
2022-09-26T17:05:29.509Z,99377.22
2022-09-26T17:07:58.922Z,99367.16
2022-09-26T17:10:27.360Z,99364.38
2022-09-26T17:13:02.590Z,99357.81
2022-09-26T17:15:32.808Z,99351.94
2022-09-26T17:18:01.058Z,99359.69
2022-09-26T17:20:30.211Z,99349.53
2022-09-26T17:23:07.966Z,99353.00
2022-09-26T17:25:52.992Z,99349.53
2022-09-26T17:28:30.468Z,99344.81
2022-09-26T17:31:06.245Z,99344.81
2022-09-26T17:33:38.108Z,99338.09
2022-09-26T17:36:10.756Z,99331.84
2022-09-26T17:38:41.297Z,99338.44
2022-09-26T17:41:12.603Z,99329.91
2022-09-26T17:43:40.560Z,99332.25
2022-09-26T17:46:15.136Z,99326.78
2022-09-26T17:48:44.786Z,99322.09
2022-09-26T17:51:14.725Z,99329.84
2022-09-26T17:53:50.343Z,99329.06
2022-09-26T17:56:19.928Z,99320.84
2022-09-26T17:58:49.200Z,99326.69
2022-09-26T18:01:23.597Z,99330.59
2022-09-26T18:03:55.941Z,99324.28
2022-09-26T18:06:27.855Z,99320.00
2022-09-26T18:08:59.756Z,99324.25
2022-09-26T18:11:28.456Z,99316.44
2022-09-26T18:13:57.140Z,99308.31
2022-09-26T18:16:25.789Z,99312.59
2022-09-26T18:18:53.860Z,99307.13
2022-09-26T18:21:24.177Z,99318.03
2022-09-26T18:23:56.243Z,99305.47
2022-09-26T18:26:31.349Z,99307.03
2022-09-26T18:29:06.386Z,99307.81
2022-09-26T18:31:37.438Z,99308.59
2022-09-26T18:34:05.830Z,99310.84
2022-09-26T18:36:34.402Z,99307.69
2022-09-26T18:39:02.644Z,99304.59
2022-09-26T18:41:32.151Z,99306.91
2022-09-26T18:44:02.815Z,99297.59
2022-09-26T18:46:31.414Z,99298.00
2022-09-26T18:49:06.285Z,99304.66
2022-09-26T18:51:34.989Z,99308.91
2022-09-26T18:54:07.157Z,99302.28
2022-09-26T18:56:56.623Z,99305.38
2022-09-26T18:59:29.189Z,99309.28
2022-09-26T19:01:58.409Z,99303.78
2022-09-26T19:04:27.319Z,99301.47
2022-09-26T19:07:01.016Z,99305.34
2022-09-26T19:09:33.703Z,99306.91
2022-09-26T19:12:03.793Z,99303.44
2022-09-26T19:14:32.280Z,99304.69
2022-09-26T19:17:00.341Z,99305.56
2022-09-26T19:19:30.282Z,99307.91
2022-09-26T19:22:00.529Z,99300.53
2022-09-26T19:24:34.440Z,99308.03
2022-09-26T19:27:07.650Z,99304.91
2022-09-26T19:29:40.388Z,99305.75
2022-09-26T19:32:13.245Z,99298.66
2022-09-26T19:34:41.368Z,99300.97
2022-09-26T19:37:13.075Z,99292.03
2022-09-26T19:39:41.139Z,99286.56
2022-09-26T19:42:11.084Z,99282.22
2022-09-26T19:44:38.994Z,99279.56
2022-09-26T19:47:07.377Z,99281.53
2022-09-26T19:49:35.331Z,99279.97
2022-09-26T19:52:03.275Z,99286.91
2022-09-26T19:54:31.302Z,99283.00
2022-09-26T19:56:59.825Z,99272.09
2022-09-26T19:59:29.229Z,99280.69
2022-09-26T20:01:57.362Z,99281.44
2022-09-26T20:04:25.762Z,99277.88
2022-09-26T20:06:53.787Z,99288.34
2022-09-26T20:09:21.742Z,99278.63
2022-09-26T20:11:49.631Z,99277.44
2022-09-26T20:14:26.801Z,99273.56
2022-09-26T20:16:59.575Z,99271.97
2022-09-26T20:19:36.128Z,99274.25
2022-09-26T20:22:07.481Z,99271.19
2022-09-26T20:24:38.396Z,99274.31
2022-09-26T20:27:08.815Z,99264.97
2022-09-26T20:29:50.957Z,99272.75
2022-09-26T20:32:20.344Z,99266.06
2022-09-26T20:34:48.347Z,99259.38
2022-09-26T20:37:16.590Z,99253.59
2022-09-26T20:39:47.017Z,99255.47
2022-09-26T20:42:18.675Z,99258.19
2022-09-26T20:44:50.820Z,99262.38
2022-09-26T20:47:21.583Z,99248.34
2022-09-26T20:49:55.058Z,99253.78
2022-09-26T20:52:25.305Z,99242.06
2022-09-26T20:54:53.773Z,99246.72
2022-09-26T20:57:22.383Z,99250.66
2022-09-26T20:59:50.922Z,99251.84
2022-09-26T21:02:27.693Z,99248.34
2022-09-26T21:04:56.190Z,99248.72
2022-09-26T21:07:25.907Z,99236.66
2022-09-26T21:09:53.797Z,99244.06
2022-09-26T21:12:21.766Z,99242.91
2022-09-26T21:14:49.724Z,99244.44
2022-09-26T21:17:20.275Z,99237.38
2022-09-26T21:19:51.223Z,99242.06
2022-09-26T21:22:22.137Z,99240.94
2022-09-26T21:24:50.155Z,99247.50
2022-09-26T21:27:18.592Z,99244.84
2022-09-26T21:29:46.986Z,99244.06
2022-09-26T21:32:18.786Z,99239.34
2022-09-26T21:34:55.886Z,99238.97
2022-09-26T21:37:23.968Z,99228.88
2022-09-26T21:39:52.209Z,99235.88
2022-09-26T21:42:20.515Z,99232.75
2022-09-26T21:44:53.645Z,99234.31
2022-09-26T21:47:21.978Z,99235.09
2022-09-26T21:49:51.833Z,99231.16
2022-09-26T21:52:24.994Z,99231.53
2022-09-26T21:54:53.909Z,99226.50
2022-09-26T21:57:27.888Z,99222.69
2022-09-26T21:59:58.330Z,99230.53
2022-09-26T22:02:26.522Z,99229.78
2022-09-26T22:04:56.069Z,99221.28
2022-09-26T22:07:24.203Z,99221.28
2022-09-26T22:09:52.637Z,99218.97
2022-09-26T22:12:20.674Z,99216.25
2022-09-26T22:14:49.029Z,99221.69
2022-09-26T22:17:16.942Z,99221.28
2022-09-26T22:19:44.953Z,99224.41
2022-09-26T22:22:15.502Z,99223.63
2022-09-26T22:24:43.477Z,99212.34
2022-09-26T22:27:11.948Z,99225.19
2022-09-26T22:29:39.849Z,99227.53
2022-09-26T22:32:08.133Z,99228.28
2022-09-26T22:34:36.381Z,99225.91
2022-09-26T22:37:04.641Z,99227.41
2022-09-26T22:39:34.049Z,99228.91
2022-09-26T22:42:01.917Z,99230.44
2022-09-26T22:44:30.144Z,99226.16
2022-09-26T22:46:58.044Z,99232.75
2022-09-26T22:49:26.235Z,99239.78
2022-09-26T22:51:54.224Z,99228.81
2022-09-26T22:54:22.153Z,99241.97
2022-09-26T22:56:51.592Z,99238.88
2022-09-26T22:59:19.603Z,99238.09
2022-09-26T23:01:47.811Z,99245.84
2022-09-26T23:04:15.879Z,99241.50
2022-09-26T23:06:43.852Z,99246.56
2022-09-26T23:09:11.863Z,99242.56
2022-09-26T23:11:40.833Z,99248.00
2022-09-26T23:14:10.267Z,99248.81
2022-09-26T23:16:38.512Z,99245.66
2022-09-26T23:19:06.523Z,99249.59
2022-09-26T23:21:34.478Z,99248.81
2022-09-26T23:24:04.795Z,99254.25
2022-09-26T23:26:32.941Z,99255.03
2022-09-26T23:29:01.231Z,99248.75
2022-09-26T23:31:31.036Z,99254.94
2022-09-26T23:33:59.020Z,99251.78
2022-09-26T23:36:26.981Z,99263.41
2022-09-26T23:38:55.373Z,99253.66
2022-09-26T23:41:23.418Z,99257.16
2022-09-26T23:43:51.524Z,99257.13
2022-09-26T23:46:19.536Z,99256.28
2022-09-26T23:48:48.838Z,99262.47
2022-09-26T23:51:16.812Z,99257.03
2022-09-26T23:53:44.798Z,99268.63
2022-09-26T23:56:14.595Z,99270.22
2022-09-26T23:58:43.150Z,99281.09
